createdAt,value
2023-04-30T00:01:04.198Z,100.00
2023-04-30T00:03:07.195Z,100.00
2023-04-30T00:05:10.530Z,100.00
2023-04-30T00:07:14.684Z,100.00
2023-04-30T00:09:17.508Z,100.00
2023-04-30T00:11:20.151Z,100.00
2023-04-30T00:13:22.881Z,100.00
2023-04-30T00:15:25.856Z,100.00
2023-04-30T00:17:28.617Z,100.00
2023-04-30T00:19:31.369Z,100.00
2023-04-30T00:21:34.216Z,100.00
2023-04-30T00:23:38.321Z,100.00
2023-04-30T00:25:44.102Z,100.00
2023-04-30T00:27:46.928Z,100.00
2023-04-30T00:29:49.593Z,100.00
2023-04-30T00:31:52.389Z,100.00
2023-04-30T00:33:55.211Z,100.00
2023-04-30T00:35:57.921Z,100.00
2023-04-30T00:38:00.680Z,100.00
2023-04-30T00:40:05.639Z,100.00
2023-04-30T00:42:08.364Z,100.00
2023-04-30T00:44:11.071Z,100.00
2023-04-30T00:46:13.830Z,100.00
2023-04-30T00:48:16.694Z,100.00
2023-04-30T00:50:19.475Z,100.00
2023-04-30T00:52:22.215Z,100.00
2023-04-30T00:54:26.351Z,100.00
2023-04-30T00:56:31.469Z,100.00
2023-04-30T00:58:34.977Z,100.00
2023-04-30T01:00:37.991Z,100.00
2023-04-30T01:02:41.808Z,100.00
2023-04-30T01:04:44.810Z,100.00
2023-04-30T01:06:47.663Z,100.00
2023-04-30T01:08:51.010Z,100.00
2023-04-30T01:11:02.842Z,100.00
2023-04-30T01:13:12.751Z,100.00
2023-04-30T01:15:23.827Z,100.00
2023-04-30T01:17:35.202Z,100.00
2023-04-30T01:19:43.713Z,100.00
2023-04-30T01:21:47.080Z,100.00
2023-04-30T01:24:06.019Z,100.00
2023-04-30T01:26:15.278Z,100.00
2023-04-30T01:28:20.207Z,100.00
2023-04-30T01:30:25.225Z,100.00
2023-04-30T01:32:27.986Z,100.00
2023-04-30T01:34:30.675Z,100.00
2023-04-30T01:36:52.087Z,100.00
2023-04-30T01:39:19.430Z,100.00
2023-04-30T01:41:34.364Z,100.00
2023-04-30T01:43:45.115Z,100.00
2023-04-30T01:46:04.800Z,100.00
2023-04-30T01:48:19.899Z,100.00
2023-04-30T01:50:29.967Z,100.00
2023-04-30T01:52:48.327Z,100.00
2023-04-30T01:54:56.958Z,100.00
2023-04-30T01:57:05.042Z,100.00
2023-04-30T01:59:10.156Z,100.00
2023-04-30T02:01:27.551Z,100.00
2023-04-30T02:03:30.528Z,100.00
2023-04-30T02:05:33.409Z,100.00
2023-04-30T02:07:40.889Z,100.00
2023-04-30T02:09:43.562Z,100.00
2023-04-30T02:11:46.229Z,100.00
2023-04-30T02:13:48.974Z,100.00
2023-04-30T02:15:53.094Z,100.00
2023-04-30T02:17:55.944Z,100.00
2023-04-30T02:19:58.997Z,100.00
2023-04-30T02:22:01.838Z,100.00
2023-04-30T02:24:04.732Z,100.00
2023-04-30T02:26:07.467Z,100.00
2023-04-30T02:28:10.223Z,100.00
2023-04-30T02:30:13.198Z,100.00
2023-04-30T02:32:17.271Z,100.00
2023-04-30T02:34:20.063Z,100.00
2023-04-30T02:36:22.824Z,100.00
2023-04-30T02:38:25.765Z,100.00
2023-04-30T02:40:28.460Z,100.00
2023-04-30T02:42:31.370Z,100.00
2023-04-30T02:44:34.715Z,100.00
2023-04-30T02:46:37.506Z,100.00
2023-04-30T02:48:41.623Z,100.00
2023-04-30T02:50:44.460Z,100.00
2023-04-30T02:52:47.573Z,100.00
2023-04-30T02:54:50.871Z,100.00
2023-04-30T02:56:54.370Z,100.00
2023-04-30T02:58:57.343Z,100.00
2023-04-30T03:01:00.531Z,100.00
2023-04-30T03:03:03.910Z,100.00
2023-04-30T03:05:09.288Z,100.00
2023-04-30T03:07:11.942Z,100.00
2023-04-30T03:09:15.219Z,100.00
2023-04-30T03:11:17.979Z,100.00
2023-04-30T03:13:21.033Z,100.00
2023-04-30T03:15:23.802Z,100.00
2023-04-30T03:17:26.546Z,100.00
2023-04-30T03:19:29.475Z,100.00
2023-04-30T03:21:33.826Z,100.00
2023-04-30T03:23:36.613Z,100.00
2023-04-30T03:25:39.388Z,100.00
2023-04-30T03:27:42.158Z,100.00
2023-04-30T03:29:44.889Z,100.00
2023-04-30T03:31:47.908Z,100.00
2023-04-30T03:33:51.139Z,100.00
2023-04-30T03:35:54.035Z,100.00
2023-04-30T03:37:58.100Z,100.00
2023-04-30T03:40:00.852Z,100.00
2023-04-30T03:42:03.817Z,100.00
2023-04-30T03:44:06.990Z,100.00
2023-04-30T03:46:09.791Z,100.00
2023-04-30T03:48:12.614Z,100.00
2023-04-30T03:50:15.748Z,100.00
2023-04-30T03:52:18.421Z,100.00
2023-04-30T03:54:22.513Z,100.00
2023-04-30T03:56:26.217Z,100.00
2023-04-30T03:58:28.981Z,100.00
2023-04-30T04:00:32.315Z,100.00
2023-04-30T04:02:36.206Z,100.00
2023-04-30T04:04:39.000Z,100.00
2023-04-30T04:06:41.911Z,100.00
2023-04-30T04:08:45.672Z,100.00
2023-04-30T04:10:49.775Z,100.00
2023-04-30T04:12:53.132Z,100.00
2023-04-30T04:14:55.893Z,100.00
2023-04-30T04:16:59.977Z,100.00
2023-04-30T04:19:02.706Z,100.00
2023-04-30T04:21:05.556Z,100.00
2023-04-30T04:23:08.594Z,100.00
2023-04-30T04:25:11.978Z,100.00
2023-04-30T04:27:16.378Z,100.00
2023-04-30T04:29:19.382Z,100.00
2023-04-30T04:31:22.776Z,100.00
2023-04-30T04:33:25.901Z,100.00
2023-04-30T04:35:28.639Z,100.00
2023-04-30T04:37:31.447Z,100.00
2023-04-30T04:39:34.181Z,100.00
2023-04-30T04:41:37.056Z,100.00
2023-04-30T04:43:41.193Z,100.00
2023-04-30T04:45:43.913Z,100.00
2023-04-30T04:47:49.127Z,100.00
2023-04-30T04:49:55.379Z,100.00
2023-04-30T04:51:58.294Z,100.00
2023-04-30T04:54:01.100Z,100.00
2023-04-30T04:56:04.481Z,100.00
2023-04-30T04:58:07.310Z,100.00
2023-04-30T05:00:12.884Z,100.00
2023-04-30T05:02:15.621Z,100.00
2023-04-30T05:04:18.336Z,100.00
2023-04-30T05:06:24.144Z,100.00
2023-04-30T05:08:27.435Z,100.00
2023-04-30T05:10:30.199Z,100.00
2023-04-30T05:12:33.205Z,100.00
2023-04-30T05:14:37.150Z,100.00
2023-04-30T05:16:41.272Z,100.00
2023-04-30T05:18:44.156Z,100.00
2023-04-30T05:20:46.865Z,100.00
2023-04-30T05:22:49.676Z,100.00
2023-04-30T05:24:53.146Z,100.00
2023-04-30T05:26:56.443Z,100.00
2023-04-30T05:28:59.577Z,100.00
2023-04-30T05:31:02.759Z,100.00
2023-04-30T05:33:07.130Z,100.00
2023-04-30T05:35:10.860Z,100.00
2023-04-30T05:37:14.490Z,100.00
2023-04-30T05:39:17.242Z,100.00
2023-04-30T05:41:19.956Z,100.00
2023-04-30T05:43:22.788Z,100.00
2023-04-30T05:45:25.748Z,100.00
2023-04-30T05:47:28.424Z,100.00
2023-04-30T05:49:36.272Z,100.00
2023-04-30T05:51:39.155Z,100.00
2023-04-30T05:53:41.944Z,100.00
2023-04-30T05:55:44.688Z,100.00
2023-04-30T05:57:47.342Z,100.00
2023-04-30T05:59:50.237Z,100.00
2023-04-30T06:01:53.136Z,100.00
2023-04-30T06:03:56.078Z,100.00
2023-04-30T06:06:00.222Z,100.00
2023-04-30T06:08:03.015Z,100.00
2023-04-30T06:10:06.950Z,100.00
2023-04-30T06:12:09.786Z,100.00
2023-04-30T06:14:12.982Z,100.00
2023-04-30T06:16:15.730Z,100.00
2023-04-30T06:18:18.508Z,99.57
2023-04-30T06:20:21.210Z,97.30
2023-04-30T06:22:25.671Z,98.37
2023-04-30T06:24:30.268Z,96.23
2023-04-30T06:26:33.985Z,96.15
2023-04-30T06:28:36.780Z,95.24
2023-04-30T06:30:39.627Z,92.80
2023-04-30T06:32:42.467Z,91.64
2023-04-30T06:34:45.240Z,93.31
2023-04-30T06:36:48.258Z,93.22
2023-04-30T06:38:52.365Z,95.15
2023-04-30T06:40:55.160Z,93.76
2023-04-30T06:42:58.003Z,92.98
2023-04-30T06:45:01.139Z,92.34
2023-04-30T06:47:03.869Z,90.79
2023-04-30T06:49:06.674Z,90.63
2023-04-30T06:51:10.885Z,89.40
2023-04-30T06:53:13.961Z,89.41
2023-04-30T06:55:18.000Z,85.93
2023-04-30T06:57:20.802Z,82.99
2023-04-30T06:59:23.530Z,82.04
2023-04-30T07:01:26.263Z,80.80
2023-04-30T07:03:29.425Z,79.03
2023-04-30T07:05:32.675Z,77.92
2023-04-30T07:07:35.567Z,79.16
2023-04-30T07:09:38.384Z,78.80
2023-04-30T07:11:42.663Z,78.55
2023-04-30T07:13:45.539Z,79.33
2023-04-30T07:15:48.257Z,79.67
2023-04-30T07:17:51.106Z,81.92
2023-04-30T07:19:53.924Z,79.53
2023-04-30T07:21:56.754Z,81.80
2023-04-30T07:23:59.473Z,77.94
2023-04-30T07:26:02.143Z,75.62
2023-04-30T07:28:06.278Z,75.20
2023-04-30T07:30:10.460Z,72.44
2023-04-30T07:32:13.123Z,65.90
2023-04-30T07:34:15.811Z,64.06
2023-04-30T07:36:18.575Z,66.58
2023-04-30T07:38:21.830Z,67.66
2023-04-30T07:40:34.915Z,65.58
2023-04-30T07:42:41.960Z,64.47
2023-04-30T07:44:46.186Z,61.81
2023-04-30T07:46:49.054Z,67.51
2023-04-30T07:48:51.909Z,65.20
2023-04-30T07:50:54.718Z,64.82
2023-04-30T07:52:57.485Z,63.09
2023-04-30T07:55:00.273Z,61.53
2023-04-30T07:57:03.388Z,65.23
2023-04-30T07:59:06.105Z,62.82
2023-04-30T08:01:10.257Z,63.47
2023-04-30T08:03:13.447Z,59.80
2023-04-30T08:05:16.266Z,60.32
2023-04-30T08:07:21.084Z,62.36
2023-04-30T08:09:23.881Z,62.71
2023-04-30T08:11:26.673Z,64.77
2023-04-30T08:13:32.192Z,66.66
2023-04-30T08:15:35.115Z,65.21
2023-04-30T08:17:39.262Z,64.15
2023-04-30T08:19:42.048Z,63.50
2023-04-30T08:21:44.797Z,65.51
2023-04-30T08:23:47.473Z,68.06
2023-04-30T08:25:50.333Z,67.93
2023-04-30T08:27:53.301Z,66.53
2023-04-30T08:29:56.269Z,66.38
2023-04-30T08:32:04.219Z,67.91
2023-04-30T08:34:08.398Z,68.98
2023-04-30T08:36:11.200Z,68.25
2023-04-30T08:38:13.993Z,67.73
2023-04-30T08:40:16.846Z,67.36
2023-04-30T08:42:22.214Z,64.19
2023-04-30T08:44:25.179Z,63.71
2023-04-30T08:46:30.914Z,59.97
2023-04-30T08:48:33.768Z,60.51
2023-04-30T08:50:38.039Z,62.76
2023-04-30T08:52:43.298Z,63.16
2023-04-30T08:54:47.121Z,64.60
2023-04-30T08:56:49.998Z,64.68
2023-04-30T08:58:52.698Z,64.61
2023-04-30T09:00:55.535Z,64.48
2023-04-30T09:02:58.379Z,63.80
2023-04-30T09:05:01.253Z,62.55
2023-04-30T09:07:06.839Z,62.28
2023-04-30T09:09:12.449Z,62.78
2023-04-30T09:11:25.727Z,62.13
2023-04-30T09:13:42.204Z,61.92
2023-04-30T09:15:45.855Z,62.11
2023-04-30T09:17:49.079Z,61.84
2023-04-30T09:19:53.420Z,61.49
2023-04-30T09:21:57.303Z,61.09
2023-04-30T09:24:03.149Z,61.19
2023-04-30T09:26:06.642Z,61.77
2023-04-30T09:28:11.327Z,60.36
2023-04-30T09:30:31.642Z,61.52
2023-04-30T09:32:34.547Z,62.95
2023-04-30T09:34:37.433Z,61.07
2023-04-30T09:36:53.544Z,61.20
2023-04-30T09:38:57.039Z,60.97
2023-04-30T09:41:03.113Z,60.99
2023-04-30T09:43:06.159Z,60.50
2023-04-30T09:45:12.343Z,60.67
2023-04-30T09:47:16.883Z,61.11
2023-04-30T09:49:20.803Z,60.49
2023-04-30T09:51:23.653Z,59.00
2023-04-30T09:53:29.831Z,59.14
2023-04-30T09:55:33.220Z,58.85
2023-04-30T09:57:37.763Z,59.38
2023-04-30T09:59:44.925Z,59.63
2023-04-30T10:01:47.783Z,58.97
2023-04-30T10:03:51.198Z,59.26
2023-04-30T10:05:54.331Z,59.01
2023-04-30T10:07:57.359Z,59.50
2023-04-30T10:10:05.165Z,59.06
2023-04-30T10:12:12.642Z,59.49
2023-04-30T10:14:20.730Z,57.47
2023-04-30T10:16:39.970Z,57.65
2023-04-30T10:18:44.566Z,58.46
2023-04-30T10:20:50.003Z,57.51
2023-04-30T10:22:53.105Z,57.23
2023-04-30T10:24:57.092Z,56.30
2023-04-30T10:27:00.076Z,56.79
2023-04-30T10:29:04.898Z,57.66
2023-04-30T10:31:11.541Z,56.17
2023-04-30T10:33:21.887Z,55.87
2023-04-30T10:35:27.952Z,55.23
2023-04-30T10:37:37.330Z,54.74
2023-04-30T10:39:40.323Z,54.89
2023-04-30T10:41:47.112Z,55.77
2023-04-30T10:43:50.356Z,56.09
2023-04-30T10:45:53.796Z,55.40
2023-04-30T10:47:58.022Z,56.24
2023-04-30T10:50:04.366Z,56.54
2023-04-30T10:52:07.234Z,56.63
2023-04-30T10:54:11.083Z,57.42
2023-04-30T10:56:14.163Z,57.35
2023-04-30T10:58:27.929Z,57.66
2023-04-30T11:00:31.865Z,57.86
2023-04-30T11:02:41.220Z,57.61
2023-04-30T11:05:15.141Z,57.84
2023-04-30T11:07:18.071Z,57.78
2023-04-30T11:09:21.542Z,57.76
2023-04-30T11:11:24.394Z,57.87
2023-04-30T11:13:28.709Z,57.34
2023-04-30T11:15:36.141Z,57.59
2023-04-30T11:17:39.515Z,57.49
2023-04-30T11:19:49.650Z,57.45
2023-04-30T11:22:18.539Z,57.21
2023-04-30T11:24:21.431Z,57.05
2023-04-30T11:26:24.765Z,56.23
2023-04-30T11:28:28.733Z,56.22
2023-04-30T11:30:32.894Z,56.48
2023-04-30T11:32:37.340Z,57.58
2023-04-30T11:34:41.117Z,56.51
2023-04-30T11:36:46.275Z,55.74
2023-04-30T11:38:53.200Z,54.92
2023-04-30T11:40:56.111Z,55.95
2023-04-30T11:42:59.080Z,55.00
2023-04-30T11:45:07.190Z,54.83
2023-04-30T11:47:10.422Z,55.89
2023-04-30T11:49:13.280Z,54.67
2023-04-30T11:51:17.235Z,54.45
2023-04-30T11:53:20.210Z,54.32
2023-04-30T11:55:25.706Z,53.69
2023-04-30T11:57:35.399Z,55.06
2023-04-30T11:59:42.175Z,54.78
2023-04-30T12:01:45.179Z,54.94
2023-04-30T12:03:49.492Z,54.20
2023-04-30T12:05:53.048Z,55.41
2023-04-30T12:07:56.970Z,54.64
2023-04-30T12:10:00.307Z,53.73
2023-04-30T12:12:04.696Z,54.20
2023-04-30T12:14:10.518Z,55.64
2023-04-30T12:16:13.479Z,54.52
2023-04-30T12:18:16.365Z,54.28
2023-04-30T12:20:19.190Z,53.11
2023-04-30T12:22:22.073Z,53.71
2023-04-30T12:24:28.414Z,54.70
2023-04-30T12:26:39.330Z,54.12
2023-04-30T12:28:43.630Z,53.77
2023-04-30T12:30:46.871Z,54.28
2023-04-30T12:32:51.789Z,54.97
2023-04-30T12:35:01.605Z,55.43
2023-04-30T12:37:04.396Z,53.92
2023-04-30T12:39:09.501Z,55.91
2023-04-30T12:41:15.308Z,56.18
2023-04-30T12:43:19.078Z,56.04
2023-04-30T12:45:46.705Z,56.02
2023-04-30T12:47:50.499Z,56.69
2023-04-30T12:49:53.595Z,56.42
2023-04-30T12:52:01.474Z,56.36
2023-04-30T12:54:04.347Z,56.21
2023-04-30T12:56:12.121Z,57.31
2023-04-30T12:58:16.740Z,56.83
2023-04-30T13:00:19.568Z,56.15
2023-04-30T13:02:27.120Z,54.62
2023-04-30T13:04:29.952Z,54.13
2023-04-30T13:06:33.318Z,54.38
2023-04-30T13:08:45.669Z,53.42
2023-04-30T13:10:52.940Z,54.37
2023-04-30T13:12:55.672Z,54.99
2023-04-30T13:14:58.433Z,55.84
2023-04-30T13:17:02.681Z,54.51
2023-04-30T13:19:07.196Z,55.67
2023-04-30T13:21:09.901Z,56.65
2023-04-30T13:23:13.017Z,55.84
2023-04-30T13:25:17.457Z,55.09
2023-04-30T13:27:20.505Z,54.20
2023-04-30T13:29:23.308Z,53.18
2023-04-30T13:31:26.118Z,53.98
2023-04-30T13:33:28.830Z,53.16
2023-04-30T13:35:32.922Z,52.75
2023-04-30T13:37:35.811Z,52.94
2023-04-30T13:39:38.549Z,53.09
2023-04-30T13:41:41.259Z,53.06
2023-04-30T13:43:44.772Z,52.48
2023-04-30T13:45:47.585Z,52.98
2023-04-30T13:47:50.364Z,53.03
2023-04-30T13:49:53.187Z,53.33
2023-04-30T13:51:57.806Z,52.52
2023-04-30T13:54:00.481Z,53.56
2023-04-30T13:56:03.667Z,53.78
2023-04-30T13:58:06.374Z,54.02
2023-04-30T14:00:10.116Z,54.10
2023-04-30T14:02:12.890Z,54.62
2023-04-30T14:04:15.922Z,55.04
2023-04-30T14:06:18.981Z,55.21
2023-04-30T14:08:23.635Z,54.59
2023-04-30T14:10:26.488Z,54.29
2023-04-30T14:12:30.431Z,53.93
2023-04-30T14:14:33.208Z,53.72
2023-04-30T14:16:36.146Z,53.54
2023-04-30T14:18:38.838Z,54.69
2023-04-30T14:20:41.792Z,53.73
2023-04-30T14:22:44.607Z,54.66
2023-04-30T14:24:48.832Z,54.30
2023-04-30T14:26:51.494Z,54.73
2023-04-30T14:28:54.262Z,54.92
2023-04-30T14:30:57.102Z,54.18
2023-04-30T14:32:59.825Z,53.74
2023-04-30T14:35:02.669Z,53.78
2023-04-30T14:37:05.476Z,53.33
2023-04-30T14:39:08.805Z,54.22
2023-04-30T14:41:13.837Z,53.55
2023-04-30T14:43:16.516Z,54.88
2023-04-30T14:45:19.277Z,54.90
2023-04-30T14:47:24.199Z,53.15
2023-04-30T14:49:27.810Z,53.64
2023-04-30T14:51:31.966Z,52.60
2023-04-30T14:53:34.782Z,52.84
2023-04-30T14:55:37.563Z,53.12
2023-04-30T14:57:42.079Z,52.75
2023-04-30T14:59:44.791Z,52.90
2023-04-30T15:01:47.604Z,53.59
2023-04-30T15:03:51.103Z,54.31
2023-04-30T15:05:54.041Z,54.49
2023-04-30T15:07:56.931Z,53.86
2023-04-30T15:09:59.687Z,53.22
2023-04-30T15:12:02.476Z,52.85
2023-04-30T15:14:06.713Z,53.77
2023-04-30T15:16:09.805Z,54.20
2023-04-30T15:18:13.957Z,53.53
2023-04-30T15:20:16.664Z,53.35
2023-04-30T15:22:19.341Z,53.07
2023-04-30T15:24:22.245Z,53.38
2023-04-30T15:26:25.902Z,53.59
2023-04-30T15:28:29.021Z,53.61
2023-04-30T15:30:33.137Z,53.42
2023-04-30T15:32:35.917Z,53.49
2023-04-30T15:34:38.841Z,53.44
2023-04-30T15:36:41.683Z,53.56
2023-04-30T15:38:44.491Z,53.89
2023-04-30T15:40:47.169Z,52.80
2023-04-30T15:42:50.167Z,52.97
2023-04-30T15:44:53.117Z,53.56
2023-04-30T15:46:57.387Z,53.82
2023-04-30T15:49:01.020Z,53.42
2023-04-30T15:51:04.215Z,53.98
2023-04-30T15:53:06.952Z,54.26
2023-04-30T15:55:10.475Z,54.50
2023-04-30T15:57:13.164Z,54.44
2023-04-30T15:59:17.732Z,54.64
2023-04-30T16:01:23.364Z,55.10
2023-04-30T16:03:27.678Z,54.62
2023-04-30T16:05:30.784Z,55.58
2023-04-30T16:07:33.718Z,55.54
2023-04-30T16:09:36.518Z,55.08
2023-04-30T16:11:39.924Z,55.21
2023-04-30T16:13:42.774Z,55.26
2023-04-30T16:15:45.517Z,54.84
2023-04-30T16:17:48.346Z,54.98
2023-04-30T16:19:52.354Z,54.45
2023-04-30T16:21:55.250Z,55.03
2023-04-30T16:23:58.281Z,55.33
2023-04-30T16:26:01.005Z,55.90
2023-04-30T16:28:03.678Z,55.68
2023-04-30T16:30:08.592Z,54.95
2023-04-30T16:32:11.658Z,55.26
2023-04-30T16:34:14.524Z,56.40
2023-04-30T16:36:18.626Z,55.88
2023-04-30T16:38:21.873Z,55.92
2023-04-30T16:40:26.082Z,55.55
2023-04-30T16:42:30.079Z,55.97
2023-04-30T16:44:32.956Z,56.38
2023-04-30T16:46:36.333Z,55.83
2023-04-30T16:48:39.597Z,56.00
2023-04-30T16:50:42.251Z,56.17
2023-04-30T16:52:46.331Z,56.20
2023-04-30T16:54:48.956Z,56.33
2023-04-30T16:56:51.603Z,55.74
2023-04-30T16:58:54.724Z,55.66
2023-04-30T17:00:57.461Z,55.75
2023-04-30T17:03:00.423Z,55.49
2023-04-30T17:05:03.310Z,56.70
2023-04-30T17:07:05.965Z,56.14
2023-04-30T17:09:10.088Z,56.19
2023-04-30T17:11:12.990Z,56.76
2023-04-30T17:13:15.714Z,56.33
2023-04-30T17:15:20.009Z,57.24
2023-04-30T17:17:23.351Z,57.40
2023-04-30T17:19:26.230Z,56.91
2023-04-30T17:21:29.585Z,57.40
2023-04-30T17:23:32.297Z,56.77
2023-04-30T17:25:37.022Z,57.16
2023-04-30T17:27:39.790Z,57.40
2023-04-30T17:29:42.879Z,58.29
2023-04-30T17:31:45.836Z,58.12
2023-04-30T17:33:48.842Z,57.94
2023-04-30T17:35:51.550Z,58.11
2023-04-30T17:37:54.489Z,58.80
2023-04-30T17:39:57.461Z,59.39
2023-04-30T17:42:03.295Z,59.05
2023-04-30T17:44:06.095Z,58.74
2023-04-30T17:46:09.727Z,59.42
2023-04-30T17:48:12.551Z,59.45
2023-04-30T17:50:16.192Z,58.86
2023-04-30T17:52:19.150Z,58.87
2023-04-30T17:54:21.974Z,58.80
2023-04-30T17:56:26.053Z,59.31
2023-04-30T17:58:30.402Z,59.32
2023-04-30T18:00:34.321Z,59.71
2023-04-30T18:02:37.825Z,60.29
2023-04-30T18:04:40.639Z,60.47
2023-04-30T18:06:43.441Z,60.78
2023-04-30T18:08:46.414Z,61.28
2023-04-30T18:10:49.800Z,61.10
2023-04-30T18:12:53.879Z,61.62
2023-04-30T18:14:58.039Z,61.74
2023-04-30T18:17:00.802Z,61.10
2023-04-30T18:19:04.261Z,61.17
2023-04-30T18:21:08.670Z,60.62
2023-04-30T18:23:13.402Z,61.62
2023-04-30T18:25:17.422Z,60.86
2023-04-30T18:27:20.166Z,61.59
2023-04-30T18:29:24.650Z,61.88
2023-04-30T18:31:29.175Z,62.27
2023-04-30T18:33:32.631Z,62.49
2023-04-30T18:35:35.710Z,64.03
2023-04-30T18:37:38.486Z,63.97
2023-04-30T18:39:41.196Z,65.93
2023-04-30T18:41:44.589Z,64.19
2023-04-30T18:43:47.572Z,64.76
2023-04-30T18:45:51.220Z,65.21
2023-04-30T18:47:55.875Z,65.32
2023-04-30T18:49:58.885Z,64.63
2023-04-30T18:52:01.667Z,65.41
2023-04-30T18:54:04.489Z,65.77
2023-04-30T18:56:07.671Z,66.12
2023-04-30T18:58:10.389Z,68.02
2023-04-30T19:00:14.701Z,66.12
2023-04-30T19:02:17.439Z,67.04
2023-04-30T19:04:21.508Z,65.68
2023-04-30T19:06:24.322Z,65.74
2023-04-30T19:08:27.333Z,66.80
2023-04-30T19:10:30.140Z,65.98
2023-04-30T19:12:32.889Z,67.30
2023-04-30T19:14:35.590Z,66.16
2023-04-30T19:16:38.418Z,66.92
2023-04-30T19:18:41.243Z,65.73
2023-04-30T19:20:57.156Z,65.19
2023-04-30T19:22:59.925Z,67.74
2023-04-30T19:25:02.852Z,67.40
2023-04-30T19:27:05.539Z,68.42
2023-04-30T19:29:08.224Z,67.59
2023-04-30T19:31:11.477Z,67.06
2023-04-30T19:33:14.371Z,68.68
2023-04-30T19:35:17.328Z,67.21
2023-04-30T19:37:21.668Z,67.18
2023-04-30T19:39:29.588Z,68.55
2023-04-30T19:41:32.272Z,68.73
2023-04-30T19:43:35.060Z,69.28
2023-04-30T19:45:37.755Z,69.16
2023-04-30T19:47:41.038Z,68.60
2023-04-30T19:49:44.703Z,70.81
2023-04-30T19:51:47.409Z,70.57
2023-04-30T19:53:52.129Z,70.38
2023-04-30T19:55:54.921Z,73.47
2023-04-30T19:57:57.624Z,72.22
2023-04-30T20:00:01.287Z,74.63
2023-04-30T20:02:04.191Z,71.95
2023-04-30T20:04:07.577Z,71.36
2023-04-30T20:06:10.886Z,70.56
2023-04-30T20:08:13.843Z,69.31
2023-04-30T20:10:19.557Z,69.47
2023-04-30T20:12:22.430Z,69.23
2023-04-30T20:14:25.390Z,69.87
2023-04-30T20:16:28.275Z,70.70
2023-04-30T20:18:31.137Z,70.69
2023-04-30T20:20:34.100Z,71.01
2023-04-30T20:22:37.105Z,69.11
2023-04-30T20:24:44.197Z,70.15
2023-04-30T20:26:48.368Z,72.45
2023-04-30T20:28:51.354Z,71.34
2023-04-30T20:30:54.118Z,70.34
2023-04-30T20:32:56.864Z,71.75
2023-04-30T20:35:00.013Z,72.14
2023-04-30T20:37:04.811Z,70.50
2023-04-30T20:39:08.823Z,71.84
2023-04-30T20:41:11.790Z,73.19
2023-04-30T20:43:15.946Z,72.18
2023-04-30T20:45:19.543Z,70.76
2023-04-30T20:47:22.487Z,70.94
2023-04-30T20:49:26.967Z,69.00
2023-04-30T20:51:30.214Z,69.02
2023-04-30T20:53:32.930Z,71.96
2023-04-30T20:55:35.652Z,73.08
2023-04-30T20:57:38.872Z,75.72
2023-04-30T20:59:42.941Z,74.33
2023-04-30T21:01:46.101Z,72.38
2023-04-30T21:03:49.379Z,71.97
2023-04-30T21:05:52.226Z,72.82
2023-04-30T21:07:55.198Z,71.65
2023-04-30T21:09:58.940Z,69.74
2023-04-30T21:12:01.810Z,73.23
2023-04-30T21:14:04.590Z,73.49
2023-04-30T21:16:09.449Z,73.28
2023-04-30T21:18:12.343Z,73.92
2023-04-30T21:20:15.086Z,77.25
2023-04-30T21:22:17.864Z,75.65
2023-04-30T21:24:20.988Z,74.81
2023-04-30T21:26:23.770Z,77.31
2023-04-30T21:28:26.947Z,75.42
2023-04-30T21:30:29.699Z,75.31
2023-04-30T21:32:33.739Z,75.66
2023-04-30T21:34:36.499Z,75.95
2023-04-30T21:36:39.333Z,75.01
2023-04-30T21:38:42.128Z,75.95
2023-04-30T21:40:44.766Z,73.91
2023-04-30T21:42:47.650Z,71.88
2023-04-30T21:44:50.513Z,72.38
2023-04-30T21:46:53.255Z,73.61
2023-04-30T21:48:57.606Z,75.80
2023-04-30T21:51:00.676Z,72.62
2023-04-30T21:53:05.008Z,71.92
2023-04-30T21:55:09.480Z,70.80
2023-04-30T21:57:12.242Z,71.67
2023-04-30T21:59:15.029Z,71.47
2023-04-30T22:01:18.157Z,73.41
2023-04-30T22:03:21.171Z,74.37
2023-04-30T22:05:26.018Z,75.68
2023-04-30T22:07:28.864Z,75.01
2023-04-30T22:09:31.746Z,78.34
2023-04-30T22:11:34.459Z,76.50
2023-04-30T22:13:37.160Z,78.06
2023-04-30T22:15:47.775Z,76.78
2023-04-30T22:17:51.499Z,75.94
2023-04-30T22:19:54.466Z,75.72
2023-04-30T22:21:58.785Z,77.57
2023-04-30T22:24:01.456Z,77.94
2023-04-30T22:26:07.125Z,78.97
2023-04-30T22:28:11.162Z,77.52
2023-04-30T22:30:14.032Z,76.44
2023-04-30T22:32:17.268Z,74.21
2023-04-30T22:34:23.148Z,76.41
2023-04-30T22:36:25.901Z,75.64
2023-04-30T22:38:30.567Z,73.43
2023-04-30T22:40:34.085Z,76.25
2023-04-30T22:42:36.792Z,74.67
2023-04-30T22:44:39.581Z,74.30
2023-04-30T22:46:42.655Z,72.07
2023-04-30T22:48:45.638Z,75.04
2023-04-30T22:50:48.474Z,76.51
2023-04-30T22:52:51.410Z,74.26
2023-04-30T22:54:55.906Z,72.59
2023-04-30T22:56:59.585Z,74.68
2023-04-30T22:59:02.594Z,73.60
2023-04-30T23:01:05.375Z,72.14
2023-04-30T23:03:08.334Z,73.86
2023-04-30T23:05:11.863Z,76.72
2023-04-30T23:07:14.579Z,73.57
2023-04-30T23:09:17.601Z,75.97
2023-04-30T23:11:21.648Z,75.38
2023-04-30T23:13:24.564Z,76.69
2023-04-30T23:15:27.836Z,75.13
2023-04-30T23:17:30.567Z,75.68
2023-04-30T23:19:33.500Z,78.03
2023-04-30T23:21:36.249Z,78.17
2023-04-30T23:23:39.366Z,77.83
2023-04-30T23:25:42.225Z,78.98
2023-04-30T23:27:46.455Z,81.21
2023-04-30T23:29:49.205Z,79.90
2023-04-30T23:31:53.992Z,76.64
2023-04-30T23:33:56.957Z,77.63
2023-04-30T23:35:59.660Z,73.80
2023-04-30T23:38:02.618Z,73.80
2023-04-30T23:40:07.427Z,72.81
2023-04-30T23:42:11.246Z,72.31
2023-04-30T23:44:15.552Z,72.35
2023-04-30T23:46:19.175Z,74.17
2023-04-30T23:48:22.016Z,74.35
2023-04-30T23:50:24.714Z,73.50
2023-04-30T23:52:27.386Z,74.98
2023-04-30T23:54:30.183Z,76.94
2023-04-30T23:56:33.926Z,75.59
2023-04-30T23:58:36.680Z,75.66
